CYED/YED METAR and TAF weather

Enter ICAO airport designator
Station Type Date Time Source
CYED METAR 2018/12/10 19:46 UTC NOAA

CYED 101946Z 29005KT 10SM -SHRA OVC013 02/M00 A2982 RMK SC8 DA1377FT VIS LWR E SLP133


Station Type Date Time Source
CYED Decoded METAR 2018/12/10 19:46 UTC NOAA

Edmonton Namao Alta., Canada (CYED) 53-40N 113-28W 688M
Dec 10, 2018 - 02:46 PM EST / 2018.12.10 1946 UTC
Wind: from the WNW (290 degrees) at 6 MPH (5 KT):0
Visibility: 10 mile(s):0
Sky conditions: overcast
Weather: light rain showers
Temperature: 35 F (2 C)
Windchill: 30 F (-1 C):1
Dew Point: 32 F (0 C)
Relative Humidity: 86%
Pressure (altimeter): 29.82 in. Hg (1009 hPa)
ob: CYED 101946Z 29005KT 10SM -SHRA OVC013 02/M00 A2982 RMK SC8 DA1377FT VIS LWR E SLP133
cycle: 20

Station Type Date Time Source
CYED TAF 2018/12/10 19:09 UTC NOAA

TAF
AMD TAF
AMD CYED 101906Z 1019/1106 29008KT P6SM SCT015 OVC060
TEMPO 1019/1021 5SM -RA -FZRA BR BKN015 OVC060
FM102100 27008KT P6SM SCT080 BKN140
TEMPO 1021/1023 BKN080 OVC140
FM110200 25008KT P6SM FEW180
BECMG 1104/1106 19005KT
RMK FCST BASED ON AUTO OBS 102200-110600Z. NXT FCST BY 110000Z


Example: see airport list